CYQR

Regina International Airport

Regina, Saskatchewan, Canada
TAF CYQR 180538Z 1806/1906 24010KT P6SM SKC FM181800 28012KT P6SM SCT240 BECMG 1820/1822 33012KT FM190200 31015KT P6SM BKN160 RMK NXT FCST BY 181200Z
Issued Valid From Valid To
Oct-18 @ 05:38 UTC
(6 hours ago)
Oct-18 @ 06:00 UTC
(5 hours ago)
Oct-19 @ 06:00 UTC
(in 19 hours)
Oct-18 @ 06:00 to Oct-18 @ 18:00
TAF CYQR 180538Z 1806/1906 24010KT P6SM SKC
Wind Visibility Clouds
240° at 10 knots Greater than 6 miles
  • Clear skies
From Oct-18 @ 18:00 to Oct-18 @ 20:00
FM181800 28012KT P6SM SCT240
Wind Visibility Clouds
280° at 12 knots Greater than 6 miles
  • Scattered at 24,000' AGL
Becoming Oct-18 @ 20:00 to Oct-19 @ 02:00
BECMG 1820/1822 33012KT
Wind Visibility Clouds
330° at 12 knots Greater than 6 miles
  • Scattered at 24,000' AGL
From Oct-19 @ 02:00 to Oct-19 @ 06:00
FM190200 31015KT P6SM BKN160 RMK NXT FCST BY 181200Z
Wind Visibility Clouds
310° at 15 knots Greater than 6 miles
  • Broken at 16,000' AGL
TAF CYQR 180538Z 1806/1906 24010KT P6SM SKC FM181800 28012KT P6SM SCT240 BECMG 1820/1822 33012KT FM190200 31015KT P6SM BKN160 RMK NXT FCST BY 181200Z
Issued Oct-18 @ 05:38 UTC
(6 hours ago)
Valid From Oct-18 @ 06:00 UTC
(5 hours ago)
Valid To Oct-19 @ 06:00 UTC
(in 19 hours)
Oct-18 @ 06:00 - Oct-18 @ 18:00
Wind Visibility
240° at 10 knots Greater than 6 miles
Clouds
  • Clear skies
From Oct-18 @ 18:00 - Oct-18 @ 20:00
Wind Visibility
280° at 12 knots Greater than 6 miles
Clouds
  • Scattered at 24,000' AGL
Becoming Oct-18 @ 20:00 - Oct-19 @ 02:00
Wind Visibility
330° at 12 knots Greater than 6 miles
Clouds
  • Scattered at 24,000' AGL
From Oct-19 @ 02:00 - Oct-19 @ 06:00
Wind Visibility
310° at 15 knots Greater than 6 miles
Clouds
  • Broken at 16,000' AGL